Zanesville, OH

1:19 PM EDT on July 07, 2015 (GMT -0400)
Wheeling & Southard Ave | | Change Station
CLOSE
Current Station
Personal Weather Station
Location: Zanesville, OH
Elevation: 906 ft
Nearby Weather Stations

Elev 906 ft 39.94 °N, 81.99 °W | Updated 13 minutes ago

Mostly Cloudy
Mostly Cloudy
87.4 °F
Feels Like 96 °F
N
6.7
Wind Variable Wind from West

Today
High -- | Low -- °F
--% Chance of Precip.
Yesterday
High -- | Low -- °F
Precip. -- in
6:06 AM 8:59 PM
Waning Gibbous, 63% visible
Pressure 29.96 in
Visibility 7.0 miles
Clouds Scattered Clouds 2700 ft
Mostly Cloudy 3400 ft
Mostly Cloudy 4300 ft
Heat Index 96 °F
Dew Point 74 °F
Humidity 64%
Rainfall 0.00 in
Snow Depth Not available.
UV 6 out of 12
Pollen 2.80 out of 12
Air Quality Not available.
Flu Activity Not available.
METAR KZZV 071653Z AUTO 21009KT 7SM SCT027 BKN034 BKN043 28/21 A2998 RMK AO2 SLP145 T02780211

More Conditions Fewer Conditions

Pressure 29.96 in
Visibility 7.0 miles
Clouds Scattered Clouds 2700 ft
Mostly Cloudy 3400 ft
Mostly Cloudy 4300 ft
Heat Index 96 °F
Dew Point 74 °F
Humidity 64%
Rainfall 0.00 in
Snow Depth Not available.
UV 6 out of 12
Pollen 2.80 out of 12
Air Quality Not available.
Flu Activity Not available.
METAR KZZV 071653Z AUTO 21009KT 7SM SCT027 BKN034 BKN043 28/21 A2998 RMK AO2 SLP145 T02780211

More Conditions Fewer Conditions

10-Day Weather Forecast

×

Almanac

Astronomy

Jul. 07, 2015 Rise Set
Actual Time
Civil Twilight
Nautical Twilight
Astronomical Twilight
Moon
Length of Visible Light
Length of Day
Tomorrow will be .
, % of the Moon is Illuminated

Today's Extremes

State Highs State Lows

Community

WunderPhotos

Upload Photos

1,835,857 photos uploaded!

WunderBlogs® & News

Nearby

Air Quality

  Air Quality AQ Index Pollutant
Not available.

Snow Depth

Station Depth Elevation

Earthquake Activity

City Distance Mag. Time & Date
Minimum magnitude displayed is 2.5.

Coastal Water Temperatures

Place Temperature

Stations

Nearby Weather Stations

Station Location Temp. Windchill Dew Point Humidity Wind Precip. Elev Updated Type